createdAt,value
2019-01-12T00:00:58.714Z,40.29
2019-01-12T00:01:57.843Z,40.33
2019-01-12T00:02:57.812Z,40.3
2019-01-12T00:03:58.214Z,40.27
2019-01-12T00:04:57.874Z,40.26
2019-01-12T00:05:57.834Z,40.31
2019-01-12T00:06:57.626Z,40.26
2019-01-12T00:07:57.783Z,40.33
2019-01-12T00:08:58.437Z,40.26
2019-01-12T00:09:58.066Z,40.36
2019-01-12T00:10:57.820Z,40.34
2019-01-12T00:11:57.954Z,40.35
2019-01-12T00:12:57.858Z,40.33
2019-01-12T00:13:59.791Z,40.33
2019-01-12T00:14:58.040Z,40.35
2019-01-12T00:15:58.199Z,40.32
2019-01-12T00:16:57.992Z,40.26
2019-01-12T00:17:57.728Z,40.32
2019-01-12T00:18:58.137Z,40.32
2019-01-12T00:19:57.908Z,40.37
2019-01-12T00:20:59.688Z,40.34
2019-01-12T00:21:58.198Z,40.3
2019-01-12T00:22:58.073Z,40.36
2019-01-12T00:23:57.904Z,40.35
2019-01-12T00:24:58.272Z,40.36
2019-01-12T00:25:58.069Z,40.39
2019-01-12T00:26:57.959Z,40.33
2019-01-12T00:27:57.911Z,40.36
2019-01-12T00:28:58.190Z,40.37
2019-01-12T00:29:58.071Z,40.36
2019-01-12T00:30:58.139Z,40.41
2019-01-12T00:31:58.094Z,40.34
2019-01-12T00:32:57.997Z,40.38
2019-01-12T00:33:57.810Z,40.3
2019-01-12T00:34:58.251Z,40.38
2019-01-12T00:35:58.004Z,40.4
2019-01-12T00:36:58.339Z,40.34
2019-01-12T00:37:58.262Z,40.37
2019-01-12T00:38:58.066Z,40.37
2019-01-12T00:39:57.905Z,40.36
2019-01-12T00:40:58.387Z,40.4
2019-01-12T00:41:58.106Z,40.39
2019-01-12T00:42:57.907Z,40.33
2019-01-12T00:43:57.906Z,40.3
2019-01-12T00:44:57.766Z,40.35
2019-01-12T00:45:58.048Z,40.33
2019-01-12T00:46:58.621Z,40.28
2019-01-12T00:47:57.834Z,40.41
2019-01-12T00:48:58.343Z,40.36
2019-01-12T00:49:57.706Z,40.34
2019-01-12T00:50:58.973Z,40.33
2019-01-12T00:51:57.993Z,40.37
2019-01-12T00:52:58.049Z,40.39
2019-01-12T00:53:57.933Z,40.33
2019-01-12T00:54:58.009Z,40.36
2019-01-12T00:55:58.055Z,40.39
2019-01-12T00:56:58.204Z,40.37
2019-01-12T00:57:58.029Z,40.3
2019-01-12T00:58:57.883Z,40.4
2019-01-12T00:59:57.886Z,40.35
2019-01-12T01:00:57.937Z,40.37
2019-01-12T01:01:57.915Z,40.35
2019-01-12T01:02:58.299Z,40.31
2019-01-12T01:03:57.986Z,40.37
2019-01-12T01:04:59.738Z,40.43
2019-01-12T01:05:58.184Z,40.38
2019-01-12T01:06:57.745Z,40.34
2019-01-12T01:07:57.857Z,40.39
2019-01-12T01:08:57.974Z,40.39
2019-01-12T01:09:57.790Z,40.42
2019-01-12T01:10:57.967Z,40.45
2019-01-12T01:11:57.856Z,40.42
2019-01-12T01:12:57.991Z,40.44
2019-01-12T01:13:57.988Z,40.44
2019-01-12T01:14:57.741Z,40.43
2019-01-12T01:15:58.535Z,40.39
2019-01-12T01:16:57.704Z,40.37
2019-01-12T01:17:58.042Z,40.42
2019-01-12T01:18:58.017Z,40.41
2019-01-12T01:19:57.815Z,40.41
2019-01-12T01:20:58.168Z,40.44
2019-01-12T01:21:57.991Z,40.38
2019-01-12T01:22:57.981Z,40.44
2019-01-12T01:23:57.834Z,40.45
2019-01-12T01:24:57.782Z,40.43
2019-01-12T01:25:58.610Z,40.47
2019-01-12T01:26:58.508Z,40.44
2019-01-12T01:27:57.811Z,40.45
2019-01-12T01:28:58.418Z,40.46
2019-01-12T01:29:57.870Z,40.45
2019-01-12T01:30:58.934Z,40.46
2019-01-12T01:31:57.919Z,40.46
2019-01-12T01:32:57.909Z,40.46
2019-01-12T01:33:57.942Z,40.49
2019-01-12T01:34:58.189Z,40.52
2019-01-12T01:35:58.569Z,40.53
2019-01-12T01:36:59.680Z,40.5
2019-01-12T01:37:57.998Z,40.52
2019-01-12T01:38:57.768Z,40.52
2019-01-12T01:39:58.089Z,40.52
2019-01-12T01:40:58.086Z,40.52
2019-01-12T01:41:57.984Z,40.53
2019-01-12T01:42:58.328Z,40.52
2019-01-12T01:43:57.690Z,40.45
2019-01-12T01:44:58.138Z,40.5
2019-01-12T01:45:57.992Z,40.58
2019-01-12T01:46:57.654Z,40.54
2019-01-12T01:47:58.173Z,40.57
2019-01-12T01:48:58.335Z,40.54
2019-01-12T01:49:57.906Z,40.54
2019-01-12T01:50:57.918Z,40.55
2019-01-12T01:51:57.868Z,40.52
2019-01-12T01:52:59.002Z,40.54
2019-01-12T01:53:58.176Z,40.54
2019-01-12T01:54:58.730Z,40.52
2019-01-12T01:55:57.851Z,40.5
2019-01-12T01:56:57.896Z,40.52
2019-01-12T01:57:57.696Z,40.57
2019-01-12T01:58:57.940Z,40.55
2019-01-12T01:59:57.891Z,40.51
2019-01-12T02:00:58.011Z,40.48
2019-01-12T02:01:57.794Z,40.55
2019-01-12T02:02:57.900Z,40.5
2019-01-12T02:03:58.181Z,40.5
2019-01-12T02:04:58.271Z,40.5
2019-01-12T02:05:59.296Z,40.57
2019-01-12T02:06:57.997Z,40.5
2019-01-12T02:07:57.848Z,40.55
2019-01-12T02:08:57.908Z,40.51
2019-01-12T02:09:58.005Z,40.54
2019-01-12T02:10:57.966Z,40.53
2019-01-12T02:11:57.817Z,40.53
2019-01-12T02:12:57.843Z,40.56
2019-01-12T02:14:00.540Z,40.52
2019-01-12T02:14:57.912Z,40.46
2019-01-12T02:15:59.835Z,40.52
2019-01-12T02:16:57.758Z,40.52
2019-01-12T02:17:57.907Z,40.57
2019-01-12T02:18:58.372Z,40.59
2019-01-12T02:19:57.830Z,40.54
2019-01-12T02:20:58.183Z,40.56
2019-01-12T02:21:57.826Z,40.54
2019-01-12T02:22:57.879Z,40.53
2019-01-12T02:23:58.402Z,40.59
2019-01-12T02:25:00.499Z,40.55
2019-01-12T02:25:57.753Z,40.56
2019-01-12T02:26:58.104Z,40.59
2019-01-12T02:27:58.531Z,40.58
2019-01-12T02:28:59.698Z,40.6
2019-01-12T02:29:58.158Z,40.53
2019-01-12T02:30:57.812Z,40.61
2019-01-12T02:31:59.747Z,40.57
2019-01-12T02:32:57.972Z,40.56
2019-01-12T02:33:58.581Z,40.63
2019-01-12T02:34:58.161Z,40.53
2019-01-12T02:35:57.864Z,40.59
2019-01-12T02:36:58.083Z,40.58
2019-01-12T02:37:57.871Z,40.63
2019-01-12T02:38:57.927Z,40.57
2019-01-12T02:39:58.923Z,40.61
2019-01-12T02:40:57.880Z,40.62
2019-01-12T02:41:58.057Z,40.62
2019-01-12T02:42:57.790Z,40.59
2019-01-12T02:43:58.192Z,40.61
2019-01-12T02:44:57.804Z,40.61
2019-01-12T02:45:57.813Z,40.64
2019-01-12T02:46:57.756Z,40.61
2019-01-12T02:47:58.117Z,40.57
2019-01-12T02:48:57.808Z,40.59
2019-01-12T02:49:58.065Z,40.65
2019-01-12T02:50:57.828Z,40.61
2019-01-12T02:51:57.948Z,40.69
2019-01-12T02:52:57.687Z,40.55
2019-01-12T02:53:57.866Z,40.59
2019-01-12T02:54:57.979Z,40.6
2019-01-12T02:55:57.720Z,40.66
2019-01-12T02:56:57.914Z,40.6
2019-01-12T02:57:57.653Z,40.59
2019-01-12T02:58:57.878Z,40.66
2019-01-12T02:59:57.863Z,40.63
2019-01-12T03:00:57.792Z,40.66
2019-01-12T03:01:58.627Z,40.69
2019-01-12T03:02:57.946Z,40.67
2019-01-12T03:03:57.672Z,40.64
2019-01-12T03:04:57.887Z,40.7
2019-01-12T03:05:58.140Z,40.71
2019-01-12T03:06:57.928Z,40.69
2019-01-12T03:07:57.879Z,40.62
2019-01-12T03:08:57.618Z,40.65
2019-01-12T03:09:57.836Z,40.64
2019-01-12T03:10:58.247Z,40.66
2019-01-12T03:11:57.752Z,40.65
2019-01-12T03:12:57.785Z,40.69
2019-01-12T03:13:58.678Z,40.66
2019-01-12T03:14:57.963Z,40.7
2019-01-12T03:15:57.757Z,40.7
2019-01-12T03:16:57.984Z,40.72
2019-01-12T03:17:58.388Z,40.69
2019-01-12T03:18:57.776Z,40.69
2019-01-12T03:19:57.833Z,40.72
2019-01-12T03:20:57.796Z,40.72
2019-01-12T03:21:58.075Z,40.67
2019-01-12T03:22:58.856Z,40.69
2019-01-12T03:23:57.870Z,40.69
2019-01-12T03:24:58.321Z,40.71
2019-01-12T03:25:59.617Z,40.73
2019-01-12T03:26:57.893Z,40.69
2019-01-12T03:27:58.044Z,40.7
2019-01-12T03:28:57.701Z,40.65
2019-01-12T03:29:58.091Z,40.7
2019-01-12T03:30:57.917Z,40.67
2019-01-12T03:31:57.673Z,40.7
2019-01-12T03:32:57.946Z,40.74
2019-01-12T03:33:57.930Z,40.78
2019-01-12T03:34:57.992Z,40.73
2019-01-12T03:35:57.861Z,40.7
2019-01-12T03:36:58.763Z,40.67
2019-01-12T03:37:59.524Z,40.7
2019-01-12T03:38:57.875Z,40.75
2019-01-12T03:39:57.775Z,40.71
2019-01-12T03:40:58.118Z,40.72
2019-01-12T03:41:57.900Z,40.72
2019-01-12T03:42:57.942Z,40.71
2019-01-12T03:43:57.908Z,40.78
2019-01-12T03:44:58.247Z,40.77
2019-01-12T03:45:57.643Z,40.75
2019-01-12T03:46:57.803Z,40.79
2019-01-12T03:47:57.609Z,40.81
2019-01-12T03:48:57.676Z,40.77
2019-01-12T03:49:58.024Z,40.75
2019-01-12T03:50:58.126Z,40.81
2019-01-12T03:51:57.828Z,40.8
2019-01-12T03:52:57.871Z,40.78
2019-01-12T03:53:58.839Z,40.83
2019-01-12T03:54:58.150Z,40.82
2019-01-12T03:55:58.161Z,40.74
2019-01-12T03:56:57.797Z,40.73
2019-01-12T03:57:57.713Z,40.78
2019-01-12T03:58:57.854Z,40.73
2019-01-12T03:59:58.092Z,40.73
2019-01-12T04:00:57.738Z,40.73
2019-01-12T04:01:58.016Z,40.73
2019-01-12T04:02:57.787Z,40.74
2019-01-12T04:03:58.174Z,40.81
2019-01-12T04:04:58.073Z,40.74
2019-01-12T04:05:57.747Z,40.79
2019-01-12T04:06:58.117Z,40.75
2019-01-12T04:07:57.675Z,40.81
2019-01-12T04:08:57.760Z,40.79
2019-01-12T04:09:58.002Z,40.81
2019-01-12T04:10:58.146Z,40.85
2019-01-12T04:11:58.466Z,40.8
2019-01-12T04:13:00.542Z,40.82
2019-01-12T04:13:57.835Z,40.84
2019-01-12T04:14:57.838Z,40.8
2019-01-12T04:15:57.862Z,40.79
2019-01-12T04:16:57.712Z,40.83
2019-01-12T04:17:57.827Z,40.82
2019-01-12T04:18:57.672Z,40.85
2019-01-12T04:19:57.839Z,40.82
2019-01-12T04:20:57.929Z,40.83
2019-01-12T04:21:58.123Z,40.82
2019-01-12T04:22:57.914Z,40.84
2019-01-12T04:23:58.057Z,40.78
2019-01-12T04:24:57.937Z,40.86
2019-01-12T04:25:57.884Z,40.85
2019-01-12T04:26:57.615Z,40.86
2019-01-12T04:27:57.726Z,40.83
2019-01-12T04:28:57.782Z,40.83
2019-01-12T04:29:57.715Z,40.86
2019-01-12T04:30:57.729Z,40.83
2019-01-12T04:31:58.592Z,40.79
2019-01-12T04:32:57.602Z,40.85
2019-01-12T04:33:57.796Z,40.84
2019-01-12T04:34:57.790Z,40.75
2019-01-12T04:35:57.809Z,40.81
2019-01-12T04:36:57.865Z,40.84
2019-01-12T04:37:58.270Z,40.8
2019-01-12T04:38:57.744Z,40.78
2019-01-12T04:39:57.751Z,40.78
2019-01-12T04:41:00.470Z,40.75
2019-01-12T04:41:57.826Z,40.76
2019-01-12T04:42:57.909Z,40.71
2019-01-12T04:43:57.708Z,40.71
2019-01-12T04:44:57.860Z,40.7
2019-01-12T04:45:57.922Z,40.66
2019-01-12T04:46:57.788Z,40.65
2019-01-12T04:47:58.296Z,40.65
2019-01-12T04:48:57.600Z,40.68
2019-01-12T04:49:57.812Z,40.63
2019-01-12T04:50:57.867Z,40.63
2019-01-12T04:51:57.581Z,40.67
2019-01-12T04:52:57.797Z,40.64
2019-01-12T04:53:57.878Z,40.62
2019-01-12T04:54:57.867Z,40.6
2019-01-12T04:55:58.054Z,40.59
2019-01-12T04:56:57.822Z,40.59
2019-01-12T04:57:59.565Z,40.55
2019-01-12T04:58:57.820Z,40.58
2019-01-12T04:59:57.915Z,40.49
2019-01-12T05:00:57.985Z,40.54
2019-01-12T05:01:58.084Z,40.47
2019-01-12T05:02:57.920Z,40.58
2019-01-12T05:03:59.627Z,40.56
2019-01-12T05:04:58.326Z,40.54
2019-01-12T05:05:58.523Z,40.62
2019-01-12T05:06:57.787Z,40.54
2019-01-12T05:07:57.778Z,40.57
2019-01-12T05:08:57.963Z,40.54
2019-01-12T05:09:57.951Z,40.55
2019-01-12T05:10:57.891Z,40.54
2019-01-12T05:11:57.695Z,40.51
2019-01-12T05:12:57.695Z,40.52
2019-01-12T05:13:57.899Z,40.59
2019-01-12T05:14:57.949Z,40.5
2019-01-12T05:15:57.911Z,40.5
2019-01-12T05:16:57.906Z,40.51
2019-01-12T05:17:57.965Z,40.46
2019-01-12T05:18:57.749Z,40.43
2019-01-12T05:19:57.962Z,40.45
2019-01-12T05:20:58.435Z,40.39
2019-01-12T05:21:58.513Z,40.4
2019-01-12T05:22:59.525Z,40.36
2019-01-12T05:23:59.285Z,40.41
2019-01-12T05:24:58.081Z,40.34
2019-01-12T05:25:58.557Z,40.35
2019-01-12T05:26:57.700Z,40.3
2019-01-12T05:27:58.193Z,40.31
2019-01-12T05:28:57.719Z,40.22
2019-01-12T05:29:58.038Z,40.27
2019-01-12T05:30:57.821Z,40.27
2019-01-12T05:31:58.029Z,40.23
2019-01-12T05:32:57.734Z,40.28
2019-01-12T05:33:58.103Z,40.32
2019-01-12T05:34:57.741Z,40.25
2019-01-12T05:35:57.846Z,40.21
2019-01-12T05:36:57.653Z,40.22
2019-01-12T05:37:57.781Z,40.27
2019-01-12T05:38:58.268Z,40.26
2019-01-12T05:39:57.615Z,40.21
2019-01-12T05:40:57.977Z,40.22
2019-01-12T05:41:57.845Z,40.22
2019-01-12T05:42:57.888Z,40.19
2019-01-12T05:43:57.697Z,40.24
2019-01-12T05:44:58.013Z,40.2
2019-01-12T05:45:57.652Z,40.23
2019-01-12T05:46:57.911Z,40.19
2019-01-12T05:47:58.204Z,40.23
2019-01-12T05:48:57.662Z,40.21
2019-01-12T05:49:58.965Z,40.15
2019-01-12T05:50:58.148Z,40.12
2019-01-12T05:51:57.656Z,40.18
2019-01-12T05:52:58.192Z,40.18
2019-01-12T05:53:58.575Z,40.18
2019-01-12T05:54:57.969Z,40.17
2019-01-12T05:55:59.380Z,40.14
2019-01-12T05:56:57.989Z,40.13
2019-01-12T05:57:57.717Z,40.2
2019-01-12T05:58:58.041Z,40.13
2019-01-12T05:59:58.123Z,40.17
2019-01-12T06:00:57.798Z,40.15
2019-01-12T06:01:58.968Z,40.17
2019-01-12T06:02:58.142Z,40.17
2019-01-12T06:03:57.677Z,40.14
2019-01-12T06:04:57.824Z,39.51
2019-01-12T06:05:58.283Z,38.88
2019-01-12T06:06:57.969Z,38.74
2019-01-12T06:07:58.136Z,38.51
2019-01-12T06:08:57.675Z,38.51
2019-01-12T06:09:58.503Z,38.4
2019-01-12T06:10:58.091Z,38.58
2019-01-12T06:11:57.891Z,38.63
2019-01-12T06:12:57.730Z,38.81
2019-01-12T06:13:57.755Z,38.8
2019-01-12T06:14:57.720Z,38.99
2019-01-12T06:15:58.035Z,39
2019-01-12T06:16:58.150Z,39.03
2019-01-12T06:17:57.770Z,39.02
2019-01-12T06:18:57.727Z,39.07
2019-01-12T06:19:57.956Z,39.05
2019-01-12T06:20:57.941Z,39.04
2019-01-12T06:21:57.740Z,39.05
2019-01-12T06:22:57.588Z,39.14
2019-01-12T06:23:57.787Z,39.12
2019-01-12T06:24:57.754Z,39.15
2019-01-12T06:26:04.268Z,39.2
2019-01-12T06:26:57.724Z,39.17
2019-01-12T06:27:57.883Z,39.19
2019-01-12T06:28:57.645Z,39.25
2019-01-12T06:29:58.908Z,39.21
2019-01-12T06:30:58.056Z,39.25
2019-01-12T06:31:57.624Z,39.25
2019-01-12T06:32:58.289Z,39.25
2019-01-12T06:33:57.706Z,39.26
2019-01-12T06:34:57.576Z,39.24
2019-01-12T06:35:57.774Z,39.33
2019-01-12T06:36:57.869Z,39.3
2019-01-12T06:37:57.681Z,39.27
2019-01-12T06:38:57.877Z,39.33
2019-01-12T06:39:57.776Z,39.3
2019-01-12T06:40:57.734Z,39.31
2019-01-12T06:41:57.947Z,39.32
2019-01-12T06:42:57.922Z,39.34
2019-01-12T06:43:57.999Z,39.29
2019-01-12T06:44:57.997Z,39.34
2019-01-12T06:45:57.905Z,39.31
2019-01-12T06:46:57.707Z,39.32
2019-01-12T06:47:57.928Z,39.33
2019-01-12T06:48:57.923Z,39.35
2019-01-12T06:49:57.803Z,39.38
2019-01-12T06:50:57.865Z,39.35
2019-01-12T06:51:57.586Z,39.35
2019-01-12T06:52:57.722Z,39.32
2019-01-12T06:53:58.189Z,39.33
2019-01-12T06:54:57.620Z,39.35
2019-01-12T06:55:58.621Z,39.35
2019-01-12T06:56:57.920Z,39.42
2019-01-12T06:57:58.121Z,39.37
2019-01-12T06:58:58.410Z,39.34
2019-01-12T06:59:57.929Z,39.32
2019-01-12T07:00:57.795Z,39.38
2019-01-12T07:01:58.653Z,39.38
2019-01-12T07:02:57.788Z,39.39
2019-01-12T07:03:57.950Z,39.4
2019-01-12T07:04:57.852Z,39.41
2019-01-12T07:05:57.948Z,39.39
2019-01-12T07:06:58.079Z,39.4
2019-01-12T07:07:57.890Z,39.44
2019-01-12T07:08:57.686Z,39.36
2019-01-12T07:09:57.674Z,39.45
2019-01-12T07:10:57.509Z,39.44
2019-01-12T07:11:57.587Z,39.44
2019-01-12T07:12:58.041Z,39.46
2019-01-12T07:13:57.524Z,39.47
2019-01-12T07:14:58.036Z,39.46
2019-01-12T07:15:58.116Z,39.48
2019-01-12T07:16:57.732Z,39.44
2019-01-12T07:17:58.004Z,39.45
2019-01-12T07:18:57.853Z,39.47
2019-01-12T07:19:57.675Z,39.44
2019-01-12T07:20:57.683Z,39.48
2019-01-12T07:21:57.983Z,39.45
2019-01-12T07:22:57.589Z,39.48
2019-01-12T07:23:57.894Z,39.52
2019-01-12T07:24:57.855Z,39.49
2019-01-12T07:25:58.015Z,39.5
2019-01-12T07:26:58.122Z,39.46
2019-01-12T07:27:57.578Z,39.44
2019-01-12T07:28:58.005Z,39.52
2019-01-12T07:29:57.804Z,39.5
2019-01-12T07:30:57.651Z,39.53
2019-01-12T07:31:57.733Z,39.54
2019-01-12T07:32:58.066Z,39.5
2019-01-12T07:33:57.496Z,39.57
2019-01-12T07:34:57.772Z,39.54
2019-01-12T07:35:58.274Z,39.52
2019-01-12T07:36:58.483Z,39.55
2019-01-12T07:37:57.604Z,39.55
2019-01-12T07:38:58.421Z,39.55
2019-01-12T07:39:57.928Z,39.52
2019-01-12T07:40:58.224Z,39.57
2019-01-12T07:41:57.661Z,39.55
2019-01-12T07:42:57.759Z,39.57
2019-01-12T07:43:58.564Z,39.55
2019-01-12T07:44:57.725Z,39.55
2019-01-12T07:45:57.953Z,39.56
2019-01-12T07:46:57.902Z,39.54
2019-01-12T07:47:58.413Z,39.6
2019-01-12T07:48:57.732Z,39.55
2019-01-12T07:49:57.924Z,39.58
2019-01-12T07:50:57.792Z,39.59
2019-01-12T07:51:58.090Z,39.59
2019-01-12T07:52:57.800Z,39.6
2019-01-12T07:53:57.796Z,39.63
2019-01-12T07:54:57.818Z,39.59
2019-01-12T07:55:58.036Z,39.63
2019-01-12T07:56:57.908Z,39.6
2019-01-12T07:57:57.966Z,39.62
2019-01-12T07:58:58.142Z,39.63
2019-01-12T07:59:58.769Z,39.63
2019-01-12T08:00:58.271Z,39.64
2019-01-12T08:01:57.997Z,39.65
2019-01-12T08:02:57.898Z,39.64
2019-01-12T08:03:58.186Z,39.66
2019-01-12T08:04:57.924Z,39.67
2019-01-12T08:05:58.198Z,39.64
2019-01-12T08:06:57.911Z,39.62
2019-01-12T08:07:57.915Z,39.69
2019-01-12T08:08:57.913Z,39.64
2019-01-12T08:09:57.678Z,39.63
2019-01-12T08:10:57.941Z,39.68
2019-01-12T08:11:57.680Z,39.62
2019-01-12T08:12:57.736Z,39.7
2019-01-12T08:13:57.821Z,39.65
2019-01-12T08:14:57.750Z,39.72
2019-01-12T08:15:57.722Z,39.67
2019-01-12T08:16:57.809Z,39.69
2019-01-12T08:17:57.582Z,39.66
2019-01-12T08:18:57.912Z,39.65
2019-01-12T08:19:57.770Z,39.81
2019-01-12T08:20:58.185Z,39.8
2019-01-12T08:21:57.893Z,40.12
2019-01-12T08:22:57.730Z,40.11
2019-01-12T08:23:57.927Z,40.12
2019-01-12T08:24:57.653Z,40.14
2019-01-12T08:25:57.939Z,40.11
2019-01-12T08:26:57.594Z,40.11
2019-01-12T08:27:57.737Z,40.24
2019-01-12T08:28:57.855Z,40.37
2019-01-12T08:29:58.057Z,40.18
2019-01-12T08:30:57.920Z,40.33
2019-01-12T08:31:57.826Z,40.22
2019-01-12T08:32:58.011Z,40.48
2019-01-12T08:33:57.601Z,40.32
2019-01-12T08:34:58.045Z,40.42
2019-01-12T08:35:57.901Z,40.26
2019-01-12T08:36:57.740Z,40.41
2019-01-12T08:37:59.452Z,40.19
2019-01-12T08:38:57.684Z,40.08
2019-01-12T08:39:58.040Z,40.02
2019-01-12T08:40:57.648Z,39.94
2019-01-12T08:41:58.991Z,39.92
2019-01-12T08:42:57.795Z,39.89
2019-01-12T08:43:59.126Z,39.87
2019-01-12T08:44:58.190Z,39.85
2019-01-12T08:45:57.679Z,39.83
2019-01-12T08:46:57.712Z,39.82
2019-01-12T08:47:57.952Z,39.74
2019-01-12T08:48:57.731Z,39.8
2019-01-12T08:49:57.672Z,39.78
2019-01-12T08:50:58.003Z,39.78
2019-01-12T08:51:57.836Z,39.74
2019-01-12T08:52:57.729Z,39.71
2019-01-12T08:53:58.222Z,39.71
2019-01-12T08:54:57.594Z,39.68
2019-01-12T08:55:58.143Z,39.67
2019-01-12T08:56:58.579Z,39.7
2019-01-12T08:57:57.949Z,39.7
2019-01-12T08:58:57.974Z,39.71
2019-01-12T08:59:57.799Z,39.67
2019-01-12T09:00:57.934Z,39.67
2019-01-12T09:01:58.102Z,39.65
2019-01-12T09:02:58.074Z,39.65
2019-01-12T09:03:57.893Z,39.67
2019-01-12T09:04:57.713Z,39.67
2019-01-12T09:05:58.175Z,39.66
2019-01-12T09:06:57.852Z,39.64
2019-01-12T09:07:57.609Z,39.67
2019-01-12T09:08:57.739Z,39.65
2019-01-12T09:09:57.777Z,39.67
2019-01-12T09:10:57.609Z,39.71
2019-01-12T09:11:58.361Z,39.69
2019-01-12T09:12:57.572Z,39.67
2019-01-12T09:13:57.604Z,39.76
2019-01-12T09:14:57.979Z,39.71
2019-01-12T09:15:57.921Z,39.81
2019-01-12T09:16:58.086Z,39.89
2019-01-12T09:17:57.817Z,39.88
2019-01-12T09:18:57.654Z,39.77
2019-01-12T09:19:57.765Z,39.77
2019-01-12T09:20:58.243Z,39.76
2019-01-12T09:21:57.625Z,39.85
2019-01-12T09:22:58.324Z,39.73
2019-01-12T09:23:58.452Z,39.52
2019-01-12T09:24:58.150Z,39.47
2019-01-12T09:25:58.052Z,39.58
2019-01-12T09:26:57.832Z,39.48
2019-01-12T09:27:59.475Z,39.61
2019-01-12T09:28:57.745Z,39.42
2019-01-12T09:29:57.575Z,38.82
2019-01-12T09:30:57.924Z,39.14
2019-01-12T09:31:57.830Z,39.17
2019-01-12T09:32:57.815Z,39.47
2019-01-12T09:33:58.297Z,39.37
2019-01-12T09:34:57.876Z,39.43
2019-01-12T09:35:57.841Z,39.44
2019-01-12T09:36:57.761Z,39.42
2019-01-12T09:37:57.777Z,39.52
2019-01-12T09:38:57.608Z,39.3
2019-01-12T09:39:59.099Z,39.25
2019-01-12T09:40:58.281Z,39.4
2019-01-12T09:41:57.547Z,39.3
2019-01-12T09:42:58.192Z,39.33
2019-01-12T09:43:57.610Z,39.23
2019-01-12T09:44:57.952Z,39.24
2019-01-12T09:45:57.675Z,39.22
2019-01-12T09:46:58.610Z,39.09
2019-01-12T09:47:57.542Z,38.86
2019-01-12T09:48:59.738Z,39.2
2019-01-12T09:49:59.055Z,39.18
2019-01-12T09:50:57.882Z,39.14
2019-01-12T09:51:57.942Z,39.03
2019-01-12T09:52:57.560Z,39.37
2019-01-12T09:53:58.442Z,39.19
2019-01-12T09:54:57.855Z,39.03
2019-01-12T09:55:57.521Z,39.26
2019-01-12T09:56:57.916Z,39.05
2019-01-12T09:57:57.885Z,38.74
2019-01-12T09:58:57.550Z,38.93
2019-01-12T09:59:57.912Z,38.87
2019-01-12T10:00:58.094Z,39.02
2019-01-12T10:01:57.592Z,38.85
2019-01-12T10:02:58.043Z,38.92
2019-01-12T10:03:57.932Z,38.76
2019-01-12T10:04:57.612Z,39.13
2019-01-12T10:05:57.869Z,38.79
2019-01-12T10:06:57.586Z,39.17
2019-01-12T10:07:57.639Z,39.56
2019-01-12T10:08:57.761Z,39.28
2019-01-12T10:09:57.592Z,39.79
2019-01-12T10:10:57.776Z,39.37
2019-01-12T10:11:57.796Z,40.04
2019-01-12T10:12:58.114Z,39.63
2019-01-12T10:13:57.906Z,39.5
2019-01-12T10:14:57.783Z,39.47
2019-01-12T10:15:58.128Z,39.59
2019-01-12T10:16:57.643Z,39.4
2019-01-12T10:17:58.636Z,39.55
2019-01-12T10:18:57.922Z,39.49
2019-01-12T10:19:58.059Z,39.46
2019-01-12T10:20:58.445Z,39.38
2019-01-12T10:21:58.259Z,39.48
2019-01-12T10:22:57.923Z,39.55
2019-01-12T10:23:58.064Z,39.48
2019-01-12T10:24:57.682Z,39.16
2019-01-12T10:25:59.001Z,39.13
2019-01-12T10:26:58.875Z,39.08
2019-01-12T10:27:57.666Z,39.02
2019-01-12T10:28:57.715Z,39.04
2019-01-12T10:29:59.017Z,39.29
2019-01-12T10:30:57.590Z,39.43
2019-01-12T10:31:58.044Z,39.35
2019-01-12T10:32:57.544Z,39.16
2019-01-12T10:33:57.581Z,39.08
2019-01-12T10:34:57.692Z,39.46
2019-01-12T10:35:57.814Z,39.44
2019-01-12T10:36:57.690Z,39.43
2019-01-12T10:37:58.111Z,39.5
2019-01-12T10:38:57.802Z,39.39
2019-01-12T10:39:58.305Z,39.31
2019-01-12T10:40:57.701Z,39.37
2019-01-12T10:41:58.073Z,39.02
2019-01-12T10:42:57.794Z,38.97
2019-01-12T10:43:58.112Z,39.09
2019-01-12T10:44:57.868Z,39.03
2019-01-12T10:45:59.736Z,39.02
2019-01-12T10:46:57.616Z,39.04
2019-01-12T10:48:00.511Z,38.99
2019-01-12T10:48:58.173Z,38.92
2019-01-12T10:49:57.512Z,38.89
2019-01-12T10:50:57.686Z,38.94
2019-01-12T10:51:57.762Z,38.88
2019-01-12T10:52:57.616Z,39.18
2019-01-12T10:53:57.691Z,39.07
2019-01-12T10:54:57.985Z,38.38
2019-01-12T10:55:57.754Z,38.33
2019-01-12T10:56:57.841Z,38.47
2019-01-12T10:57:57.763Z,38.55
2019-01-12T10:58:58.056Z,38.52
2019-01-12T10:59:58.241Z,38.64
2019-01-12T11:00:57.675Z,38.65
2019-01-12T11:01:57.679Z,38.75
2019-01-12T11:02:58.021Z,38.76
2019-01-12T11:03:59.019Z,38.76
2019-01-12T11:04:59.136Z,38.76
2019-01-12T11:05:58.384Z,38.82
2019-01-12T11:06:57.491Z,38.76
2019-01-12T11:07:57.923Z,38.88
2019-01-12T11:08:58.339Z,38.82
2019-01-12T11:10:04.527Z,38.81
2019-01-12T11:10:58.248Z,38.81
2019-01-12T11:11:58.524Z,38.84
2019-01-12T11:12:57.774Z,38.83
2019-01-12T11:13:59.462Z,38.84
2019-01-12T11:14:58.363Z,38.84
2019-01-12T11:15:58.669Z,38.83
2019-01-12T11:16:57.716Z,38.85
2019-01-12T11:17:57.867Z,38.83
2019-01-12T11:18:57.691Z,38.83
2019-01-12T11:19:57.660Z,38.87
2019-01-12T11:20:58.292Z,38.87
2019-01-12T11:21:57.584Z,38.88
2019-01-12T11:22:57.695Z,38.87
2019-01-12T11:23:57.916Z,38.89
2019-01-12T11:24:57.500Z,38.9
2019-01-12T11:25:57.546Z,38.94
2019-01-12T11:26:57.769Z,38.94
2019-01-12T11:27:58.150Z,38.97
2019-01-12T11:28:58.254Z,38.97
2019-01-12T11:29:58.156Z,39.04
2019-01-12T11:30:57.743Z,39.02
2019-01-12T11:31:57.584Z,39.04
2019-01-12T11:32:57.757Z,39.14
2019-01-12T11:33:57.852Z,39.3
2019-01-12T11:34:58.208Z,39.43
2019-01-12T11:35:58.213Z,39.39
2019-01-12T11:36:57.546Z,40.11
2019-01-12T11:37:57.942Z,39.84
2019-01-12T11:38:57.753Z,39.85
2019-01-12T11:39:57.715Z,40.01
2019-01-12T11:40:57.963Z,39.51
2019-01-12T11:41:57.766Z,39.62
2019-01-12T11:42:57.810Z,39.72
2019-01-12T11:43:57.726Z,40.33
2019-01-12T11:44:57.740Z,40.21
2019-01-12T11:45:57.634Z,40.76
2019-01-12T11:46:57.617Z,40.49
2019-01-12T11:47:57.634Z,41.1
2019-01-12T11:48:57.976Z,41.37
2019-01-12T11:49:57.753Z,40.43
2019-01-12T11:50:57.611Z,40.79
2019-01-12T11:51:57.718Z,40.6
2019-01-12T11:52:57.682Z,40.78
2019-01-12T11:53:57.595Z,40.77
2019-01-12T11:54:57.607Z,41.08
2019-01-12T11:55:57.795Z,40.41
2019-01-12T11:56:57.454Z,40.13
2019-01-12T11:57:57.595Z,40.01
2019-01-12T11:58:57.706Z,40.02
2019-01-12T11:59:59.433Z,40.08
2019-01-12T12:00:57.979Z,40.07
2019-01-12T12:01:57.808Z,39.78
2019-01-12T12:02:57.815Z,40.01
2019-01-12T12:03:57.918Z,40.1
2019-01-12T12:04:59.421Z,40.18
2019-01-12T12:05:58.006Z,39.76
2019-01-12T12:06:58.147Z,39.86
2019-01-12T12:07:57.586Z,39.96
2019-01-12T12:08:57.883Z,39.76
2019-01-12T12:09:57.757Z,39.52
2019-01-12T12:10:57.551Z,39.45
2019-01-12T12:11:58.270Z,39.29
2019-01-12T12:12:58.270Z,39.19
2019-01-12T12:13:57.647Z,39.14
2019-01-12T12:14:59.478Z,39.11
2019-01-12T12:15:58.011Z,39.1
2019-01-12T12:16:57.679Z,39.03
2019-01-12T12:17:58.011Z,39
2019-01-12T12:18:58.092Z,39.03
2019-01-12T12:19:57.804Z,38.95
2019-01-12T12:20:57.577Z,38.96
2019-01-12T12:21:58.213Z,38.98
2019-01-12T12:22:59.486Z,38.94
2019-01-12T12:23:57.952Z,38.99
2019-01-12T12:24:57.684Z,39.01
2019-01-12T12:25:57.659Z,38.93
2019-01-12T12:26:57.621Z,38.86
2019-01-12T12:27:57.566Z,38.95
2019-01-12T12:28:58.299Z,38.9
2019-01-12T12:29:58.091Z,38.86
2019-01-12T12:30:57.889Z,38.91
2019-01-12T12:31:57.635Z,39.01
2019-01-12T12:32:57.721Z,38.96
2019-01-12T12:33:57.901Z,38.96
2019-01-12T12:34:58.243Z,39.07
2019-01-12T12:35:58.043Z,39.09
2019-01-12T12:36:57.656Z,39.06
2019-01-12T12:37:57.623Z,39.15
2019-01-12T12:38:58.071Z,39.08
2019-01-12T12:39:57.710Z,39.07
2019-01-12T12:40:57.981Z,39.05
2019-01-12T12:41:57.674Z,39.16
2019-01-12T12:42:57.599Z,39.14
2019-01-12T12:43:58.201Z,39.12
2019-01-12T12:44:57.740Z,39.13
2019-01-12T12:45:57.925Z,39.08
2019-01-12T12:46:57.953Z,39.21
2019-01-12T12:47:58.099Z,39.47
2019-01-12T12:48:57.830Z,39.63
2019-01-12T12:49:58.214Z,39.22
2019-01-12T12:50:58.341Z,39.16
2019-01-12T12:51:58.716Z,38.62
2019-01-12T12:52:59.143Z,38.33
2019-01-12T12:53:57.781Z,38.92
2019-01-12T12:54:57.792Z,38.85
2019-01-12T12:55:57.770Z,38.75